sensor_id;sensor_type;location;lat;lon;timestamp;pressure;altitude;pressure_sealevel;temperature;humidity
65832;BME280;52593;42.648;23.332;2023-04-19T00:01:18;94137.34;;;8.50;86.13
65832;BME280;52593;42.648;23.332;2023-04-19T00:03:44;94129.09;;;8.37;86.15
65832;BME280;52593;42.648;23.332;2023-04-19T00:06:09;94122.00;;;8.29;87.73
65832;BME280;52593;42.648;23.332;2023-04-19T00:08:35;94117.50;;;8.30;87.80
65832;BME280;52593;42.648;23.332;2023-04-19T00:11:00;94121.19;;;8.29;88.26
65832;BME280;52593;42.648;23.332;2023-04-19T00:13:26;94102.38;;;8.07;87.71
65832;BME280;52593;42.648;23.332;2023-04-19T00:15:51;94124.22;;;8.26;88.13
65832;BME280;52593;42.648;23.332;2023-04-19T00:18:16;94108.44;;;8.16;89.46
65832;BME280;52593;42.648;23.332;2023-04-19T00:20:43;94125.31;;;8.31;88.27
65832;BME280;52593;42.648;23.332;2023-04-19T00:23:08;94131.41;;;8.40;87.00
65832;BME280;52593;42.648;23.332;2023-04-19T00:25:34;94115.72;;;8.45;85.89
65832;BME280;52593;42.648;23.332;2023-04-19T00:27:59;94117.06;;;8.41;86.37
65832;BME280;52593;42.648;23.332;2023-04-19T00:30:24;94115.94;;;8.35;86.67
65832;BME280;52593;42.648;23.332;2023-04-19T00:32:50;94118.16;;;8.32;87.13
65832;BME280;52593;42.648;23.332;2023-04-19T00:35:15;94114.72;;;8.23;87.15
65832;BME280;52593;42.648;23.332;2023-04-19T00:37:41;94114.63;;;8.16;87.56
65832;BME280;52593;42.648;23.332;2023-04-19T00:40:07;94120.31;;;8.13;88.92
65832;BME280;52593;42.648;23.332;2023-04-19T00:42:32;94105.84;;;8.08;88.76
65832;BME280;52593;42.648;23.332;2023-04-19T00:44:58;94112.59;;;8.18;88.61
65832;BME280;52593;42.648;23.332;2023-04-19T00:47:23;94114.31;;;8.11;88.56
65832;BME280;52593;42.648;23.332;2023-04-19T00:49:48;94096.56;;;8.03;88.46
65832;BME280;52593;42.648;23.332;2023-04-19T00:52:14;94111.19;;;8.08;88.40
65832;BME280;52593;42.648;23.332;2023-04-19T00:54:42;94101.88;;;8.03;88.65
65832;BME280;52593;42.648;23.332;2023-04-19T00:57:08;94107.53;;;8.09;89.08
65832;BME280;52593;42.648;23.332;2023-04-19T00:59:34;94101.75;;;8.20;88.62
65832;BME280;52593;42.648;23.332;2023-04-19T01:01:59;94088.69;;;8.10;88.21
65832;BME280;52593;42.648;23.332;2023-04-19T01:04:25;94102.66;;;8.12;89.46
65832;BME280;52593;42.648;23.332;2023-04-19T01:06:50;94096.44;;;7.97;88.69
65832;BME280;52593;42.648;23.332;2023-04-19T01:09:16;94089.28;;;7.97;89.06
65832;BME280;52593;42.648;23.332;2023-04-19T01:11:41;94096.03;;;8.08;88.99
65832;BME280;52593;42.648;23.332;2023-04-19T01:14:07;94086.38;;;8.07;88.68
65832;BME280;52593;42.648;23.332;2023-04-19T01:16:32;94091.91;;;8.06;88.73
65832;BME280;52593;42.648;23.332;2023-04-19T01:18:58;94093.53;;;8.07;89.21
65832;BME280;52593;42.648;23.332;2023-04-19T01:21:23;94088.22;;;8.07;88.68
65832;BME280;52593;42.648;23.332;2023-04-19T01:23:48;94086.03;;;8.10;88.62
65832;BME280;52593;42.648;23.332;2023-04-19T01:26:14;94093.66;;;8.13;89.23
65832;BME280;52593;42.648;23.332;2023-04-19T01:28:40;94089.06;;;8.07;88.28
65832;BME280;52593;42.648;23.332;2023-04-19T01:31:06;94093.78;;;7.97;88.36
65832;BME280;52593;42.648;23.332;2023-04-19T01:33:31;94089.47;;;7.96;88.91
65832;BME280;52593;42.648;23.332;2023-04-19T01:35:56;94098.53;;;7.86;88.90
65832;BME280;52593;42.648;23.332;2023-04-19T01:38:22;94098.53;;;7.86;88.98
65832;BME280;52593;42.648;23.332;2023-04-19T01:40:47;94090.97;;;7.75;88.91
65832;BME280;52593;42.648;23.332;2023-04-19T01:43:15;94097.28;;;7.74;89.35
65832;BME280;52593;42.648;23.332;2023-04-19T01:45:40;94088.16;;;7.68;89.54
65832;BME280;52593;42.648;23.332;2023-04-19T01:48:06;94088.34;;;7.67;90.15
65832;BME280;52593;42.648;23.332;2023-04-19T01:50:31;94098.09;;;7.75;90.30
65832;BME280;52593;42.648;23.332;2023-04-19T01:52:57;94099.22;;;7.80;90.28
65832;BME280;52593;42.648;23.332;2023-04-19T01:55:23;94081.31;;;7.74;89.99
65832;BME280;52593;42.648;23.332;2023-04-19T01:57:49;94095.78;;;7.72;90.88
65832;BME280;52593;42.648;23.332;2023-04-19T02:00:17;94098.00;;;7.68;91.07
65832;BME280;52593;42.648;23.332;2023-04-19T02:02:43;94062.06;;;7.41;91.80
65832;BME280;52593;42.648;23.332;2023-04-19T02:05:09;94086.09;;;7.56;91.82
65832;BME280;52593;42.648;23.332;2023-04-19T02:07:34;94091.41;;;7.56;92.00
65832;BME280;52593;42.648;23.332;2023-04-19T02:10:00;94085.81;;;7.50;92.96
65832;BME280;52593;42.648;23.332;2023-04-19T02:12:26;94083.34;;;7.41;92.99
65832;BME280;52593;42.648;23.332;2023-04-19T02:14:59;94079.22;;;7.38;93.11
65832;BME280;52593;42.648;23.332;2023-04-19T02:17:26;94091.81;;;7.44;93.41
65832;BME280;52593;42.648;23.332;2023-04-19T02:19:52;94087.84;;;7.40;94.03
65832;BME280;52593;42.648;23.332;2023-04-19T02:22:17;94085.78;;;7.27;94.42
65832;BME280;52593;42.648;23.332;2023-04-19T02:24:43;94088.56;;;7.34;94.90
65832;BME280;52593;42.648;23.332;2023-04-19T02:27:09;94085.94;;;7.26;94.80
65832;BME280;52593;42.648;23.332;2023-04-19T02:29:36;94082.97;;;7.21;94.63
65832;BME280;52593;42.648;23.332;2023-04-19T02:32:01;94080.63;;;7.26;95.22
65832;BME280;52593;42.648;23.332;2023-04-19T02:34:30;94084.81;;;7.20;94.87
65832;BME280;52593;42.648;23.332;2023-04-19T02:36:55;94070.69;;;7.11;95.01
65832;BME280;52593;42.648;23.332;2023-04-19T02:39:21;94077.34;;;7.16;95.10
65832;BME280;52593;42.648;23.332;2023-04-19T02:41:46;94069.00;;;7.19;95.02
65832;BME280;52593;42.648;23.332;2023-04-19T02:44:11;94065.47;;;7.26;94.57
65832;BME280;52593;42.648;23.332;2023-04-19T02:46:37;94079.94;;;7.32;94.78
65832;BME280;52593;42.648;23.332;2023-04-19T02:49:02;94082.41;;;7.34;94.24
65832;BME280;52593;42.648;23.332;2023-04-19T02:51:28;94082.09;;;7.28;93.97
65832;BME280;52593;42.648;23.332;2023-04-19T02:53:53;94085.59;;;7.29;94.37
65832;BME280;52593;42.648;23.332;2023-04-19T02:56:19;94083.94;;;7.28;94.26
65832;BME280;52593;42.648;23.332;2023-04-19T02:58:45;94085.94;;;7.26;94.28
65832;BME280;52593;42.648;23.332;2023-04-19T03:01:10;94087.13;;;7.23;95.19
65832;BME280;52593;42.648;23.332;2023-04-19T03:03:35;94077.63;;;7.21;94.95
65832;BME280;52593;42.648;23.332;2023-04-19T03:06:01;94081.63;;;7.17;94.46
65832;BME280;52593;42.648;23.332;2023-04-19T03:08:27;94083.94;;;7.20;94.12
65832;BME280;52593;42.648;23.332;2023-04-19T03:10:53;94078.00;;;7.18;93.68
65832;BME280;52593;42.648;23.332;2023-04-19T03:13:18;94089.28;;;7.20;94.05
65832;BME280;52593;42.648;23.332;2023-04-19T03:15:44;94081.53;;;7.10;93.98
65832;BME280;52593;42.648;23.332;2023-04-19T03:18:09;94079.56;;;7.04;93.82
65832;BME280;52593;42.648;23.332;2023-04-19T03:20:34;94077.06;;;7.02;94.16
65832;BME280;52593;42.648;23.332;2023-04-19T03:23:00;94074.53;;;7.09;94.61
65832;BME280;52593;42.648;23.332;2023-04-19T03:25:26;94074.84;;;7.14;94.47
65832;BME280;52593;42.648;23.332;2023-04-19T03:27:51;94082.66;;;7.16;93.85
65832;BME280;52593;42.648;23.332;2023-04-19T03:30:17;94080.94;;;7.23;93.75
65832;BME280;52593;42.648;23.332;2023-04-19T03:32:43;94072.66;;;7.18;93.49
65832;BME280;52593;42.648;23.332;2023-04-19T03:35:08;94081.78;;;7.23;93.68
65832;BME280;52593;42.648;23.332;2023-04-19T03:37:34;94070.81;;;7.18;93.58
65832;BME280;52593;42.648;23.332;2023-04-19T03:39:59;94069.22;;;7.09;93.38
65832;BME280;52593;42.648;23.332;2023-04-19T03:42:25;94086.50;;;7.13;94.01
65832;BME280;52593;42.648;23.332;2023-04-19T03:44:50;94078.56;;;7.05;93.71
65832;BME280;52593;42.648;23.332;2023-04-19T03:47:16;94073.41;;;7.03;94.00
65832;BME280;52593;42.648;23.332;2023-04-19T03:49:41;94071.91;;;7.01;94.59
65832;BME280;52593;42.648;23.332;2023-04-19T03:52:06;94064.41;;;7.04;94.14
65832;BME280;52593;42.648;23.332;2023-04-19T03:54:32;94073.59;;;7.02;93.67
65832;BME280;52593;42.648;23.332;2023-04-19T03:56:57;94064.69;;;6.86;93.76
65832;BME280;52593;42.648;23.332;2023-04-19T03:59:22;94081.28;;;6.88;93.97
65832;BME280;52593;42.648;23.332;2023-04-19T04:01:48;94069.66;;;6.81;94.56
65832;BME280;52593;42.648;23.332;2023-04-19T04:04:13;94072.19;;;6.74;94.54
65832;BME280;52593;42.648;23.332;2023-04-19T04:06:38;94081.63;;;6.85;94.62
65832;BME280;52593;42.648;23.332;2023-04-19T04:09:04;94081.81;;;6.84;94.84
65832;BME280;52593;42.648;23.332;2023-04-19T04:11:29;94082.78;;;6.91;94.76
65832;BME280;52593;42.648;23.332;2023-04-19T04:13:55;94080.28;;;6.89;94.63
65832;BME280;52593;42.648;23.332;2023-04-19T04:16:21;94074.56;;;7.01;94.51
65832;BME280;52593;42.648;23.332;2023-04-19T04:18:46;94079.72;;;7.02;94.24
65832;BME280;52593;42.648;23.332;2023-04-19T04:21:12;94077.38;;;7.07;93.69
65832;BME280;52593;42.648;23.332;2023-04-19T04:23:37;94077.06;;;7.02;93.35
65832;BME280;52593;42.648;23.332;2023-04-19T04:26:02;94073.25;;;6.96;93.70
65832;BME280;52593;42.648;23.332;2023-04-19T04:28:29;94091.06;;;6.96;93.99
65832;BME280;52593;42.648;23.332;2023-04-19T04:30:55;94091.41;;;6.93;93.84
65832;BME280;52593;42.648;23.332;2023-04-19T04:33:25;94077.13;;;6.86;94.23
65832;BME280;52593;42.648;23.332;2023-04-19T04:35:51;94092.72;;;6.97;94.07
65832;BME280;52593;42.648;23.332;2023-04-19T04:38:18;94085.44;;;6.91;93.44
65832;BME280;52593;42.648;23.332;2023-04-19T04:40:48;94095.38;;;6.97;94.01
65832;BME280;52593;42.648;23.332;2023-04-19T04:43:14;94096.75;;;6.85;93.47
65832;BME280;52593;42.648;23.332;2023-04-19T04:45:40;94100.25;;;6.85;93.80
65832;BME280;52593;42.648;23.332;2023-04-19T04:48:06;94095.78;;;6.77;93.82
65832;BME280;52593;42.648;23.332;2023-04-19T04:50:33;94105.25;;;6.80;93.90
65832;BME280;52593;42.648;23.332;2023-04-19T04:52:58;94105.09;;;6.82;93.44
65832;BME280;52593;42.648;23.332;2023-04-19T04:55:24;94101.75;;;6.79;94.14
65832;BME280;52593;42.648;23.332;2023-04-19T04:57:50;94098.28;;;6.79;93.65
65832;BME280;52593;42.648;23.332;2023-04-19T05:00:15;94098.41;;;6.86;93.84
65832;BME280;52593;42.648;23.332;2023-04-19T05:02:41;94099.72;;;6.90;93.95
65832;BME280;52593;42.648;23.332;2023-04-19T05:05:07;94101.75;;;6.88;93.65
65832;BME280;52593;42.648;23.332;2023-04-19T05:07:35;94095.06;;;6.92;93.74
65832;BME280;52593;42.648;23.332;2023-04-19T05:10:00;94094.25;;;6.91;93.36
65832;BME280;52593;42.648;23.332;2023-04-19T05:12:26;94103.03;;;6.92;93.07
65832;BME280;52593;42.648;23.332;2023-04-19T05:14:51;94111.19;;;6.90;93.37
65832;BME280;52593;42.648;23.332;2023-04-19T05:17:17;94097.94;;;6.82;93.41
65832;BME280;52593;42.648;23.332;2023-04-19T05:19:42;94103.56;;;6.87;93.51
65832;BME280;52593;42.648;23.332;2023-04-19T05:22:08;94111.88;;;6.92;93.76
65832;BME280;52593;42.648;23.332;2023-04-19T05:24:34;94105.84;;;6.99;93.51
65832;BME280;52593;42.648;23.332;2023-04-19T05:26:59;94103.53;;;6.95;94.02
65832;BME280;52593;42.648;23.332;2023-04-19T05:29:25;94106.81;;;7.06;93.92
65832;BME280;52593;42.648;23.332;2023-04-19T05:31:51;94107.66;;;7.06;93.23
65832;BME280;52593;42.648;23.332;2023-04-19T05:34:16;94105.63;;;7.08;93.98
65832;BME280;52593;42.648;23.332;2023-04-19T05:36:42;94116.44;;;7.07;93.43
65832;BME280;52593;42.648;23.332;2023-04-19T05:39:07;94104.66;;;7.01;93.33
65832;BME280;52593;42.648;23.332;2023-04-19T05:41:33;94105.63;;;7.08;93.59
65832;BME280;52593;42.648;23.332;2023-04-19T05:43:58;94100.19;;;7.02;93.92
65832;BME280;52593;42.648;23.332;2023-04-19T05:46:24;94104.00;;;6.99;93.57
65832;BME280;52593;42.648;23.332;2023-04-19T05:48:49;94110.97;;;7.08;93.72
65832;BME280;52593;42.648;23.332;2023-04-19T05:51:14;94106.09;;;7.12;94.07
65832;BME280;52593;42.648;23.332;2023-04-19T05:53:42;94104.28;;;7.12;92.72
65832;BME280;52593;42.648;23.332;2023-04-19T05:56:07;94112.75;;;7.16;93.07
65832;BME280;52593;42.648;23.332;2023-04-19T05:58:32;94106.78;;;7.14;93.36
65832;BME280;52593;42.648;23.332;2023-04-19T06:00:58;94108.75;;;7.20;93.50
65832;BME280;52593;42.648;23.332;2023-04-19T06:03:23;94118.56;;;7.51;93.11
65832;BME280;52593;42.648;23.332;2023-04-19T06:05:49;94109.97;;;7.41;92.97
65832;BME280;52593;42.648;23.332;2023-04-19T06:08:14;94108.91;;;7.50;91.41
65832;BME280;52593;42.648;23.332;2023-04-19T06:10:41;94124.88;;;7.50;91.65
65832;BME280;52593;42.648;23.332;2023-04-19T06:13:08;94121.59;;;7.71;91.14
65832;BME280;52593;42.648;23.332;2023-04-19T06:15:33;94119.22;;;7.76;90.41
65832;BME280;52593;42.648;23.332;2023-04-19T06:17:59;94120.78;;;7.71;90.71
65832;BME280;52593;42.648;23.332;2023-04-19T06:20:24;94115.66;;;7.61;90.33
65832;BME280;52593;42.648;23.332;2023-04-19T06:22:50;94111.38;;;7.60;89.96
65832;BME280;52593;42.648;23.332;2023-04-19T06:25:15;94119.81;;;7.63;90.20
65832;BME280;52593;42.648;23.332;2023-04-19T06:27:40;94118.34;;;7.61;90.03
65832;BME280;52593;42.648;23.332;2023-04-19T06:30:06;94122.47;;;7.63;89.97
65832;BME280;52593;42.648;23.332;2023-04-19T06:32:32;94120.34;;;7.59;90.44
65832;BME280;52593;42.648;23.332;2023-04-19T06:34:57;94107.66;;;7.69;89.53
65832;BME280;52593;42.648;23.332;2023-04-19T06:37:23;94112.38;;;7.82;89.43
65832;BME280;52593;42.648;23.332;2023-04-19T06:39:48;94129.31;;;7.89;88.81
65832;BME280;52593;42.648;23.332;2023-04-19T06:42:13;94128.59;;;7.95;88.53
65832;BME280;52593;42.648;23.332;2023-04-19T06:44:39;94114.13;;;8.13;87.67
65832;BME280;52593;42.648;23.332;2023-04-19T06:47:04;94119.06;;;8.24;87.01
65832;BME280;52593;42.648;23.332;2023-04-19T06:49:30;94125.09;;;8.18;86.13
65832;BME280;52593;42.648;23.332;2023-04-19T06:51:55;94111.25;;;8.23;85.83
65832;BME280;52593;42.648;23.332;2023-04-19T06:54:21;94126.06;;;8.40;85.15
65832;BME280;52593;42.648;23.332;2023-04-19T06:56:48;94115.28;;;8.56;84.98
65832;BME280;52593;42.648;23.332;2023-04-19T06:59:15;94120.56;;;8.80;82.93
65832;BME280;52593;42.648;23.332;2023-04-19T07:01:42;94128.34;;;8.66;83.24
65832;BME280;52593;42.648;23.332;2023-04-19T07:04:07;94125.13;;;8.71;83.26
65832;BME280;52593;42.648;23.332;2023-04-19T07:06:37;94135.91;;;8.63;83.54
65832;BME280;52593;42.648;23.332;2023-04-19T07:09:03;94123.78;;;8.75;83.75
65832;BME280;52593;42.648;23.332;2023-04-19T07:11:29;94119.44;;;8.74;82.71
65832;BME280;52593;42.648;23.332;2023-04-19T07:13:55;94122.47;;;8.71;83.52
65832;BME280;52593;42.648;23.332;2023-04-19T07:16:21;94130.38;;;8.64;83.30
65832;BME280;52593;42.648;23.332;2023-04-19T07:18:46;94127.63;;;8.72;83.59
65832;BME280;52593;42.648;23.332;2023-04-19T07:21:11;94122.41;;;8.79;82.97
65832;BME280;52593;42.648;23.332;2023-04-19T07:23:37;94140.25;;;8.93;82.56
65832;BME280;52593;42.648;23.332;2023-04-19T07:26:02;94126.25;;;9.06;82.39
65832;BME280;52593;42.648;23.332;2023-04-19T07:28:28;94124.94;;;9.32;81.38
65832;BME280;52593;42.648;23.332;2023-04-19T07:30:54;94132.69;;;9.27;79.00
65832;BME280;52593;42.648;23.332;2023-04-19T07:33:19;94140.88;;;8.96;81.05
65832;BME280;52593;42.648;23.332;2023-04-19T07:35:45;94117.16;;;9.01;81.36
65832;BME280;52593;42.648;23.332;2023-04-19T07:38:10;94138.41;;;9.24;81.29
65832;BME280;52593;42.648;23.332;2023-04-19T07:40:36;94116.22;;;8.93;80.50
65832;BME280;52593;42.648;23.332;2023-04-19T07:43:01;94125.16;;;9.01;81.74
65832;BME280;52593;42.648;23.332;2023-04-19T07:45:29;94133.25;;;8.92;81.07
65832;BME280;52593;42.648;23.332;2023-04-19T07:47:54;94126.91;;;9.08;81.72
65832;BME280;52593;42.648;23.332;2023-04-19T07:50:20;94122.66;;;9.14;80.74
65832;BME280;52593;42.648;23.332;2023-04-19T07:52:45;94125.97;;;9.16;80.79
65832;BME280;52593;42.648;23.332;2023-04-19T07:55:11;94122.47;;;9.31;80.74
65832;BME280;52593;42.648;23.332;2023-04-19T07:57:36;94131.31;;;9.31;80.36
65832;BME280;52593;42.648;23.332;2023-04-19T08:00:01;94123.81;;;9.56;80.16
65832;BME280;52593;42.648;23.332;2023-04-19T08:02:28;94128.34;;;9.41;80.10
65832;BME280;52593;42.648;23.332;2023-04-19T08:04:54;94123.44;;;9.44;80.23
65832;BME280;52593;42.648;23.332;2023-04-19T08:07:20;94124.56;;;9.50;79.82
65832;BME280;52593;42.648;23.332;2023-04-19T08:09:47;94128.59;;;9.61;78.82
65832;BME280;52593;42.648;23.332;2023-04-19T08:12:13;94124.81;;;9.55;79.53
65832;BME280;52593;42.648;23.332;2023-04-19T08:14:38;94127.00;;;9.67;79.95
65832;BME280;52593;42.648;23.332;2023-04-19T08:17:04;94126.13;;;9.81;79.67
65832;BME280;52593;42.648;23.332;2023-04-19T08:19:30;94126.97;;;9.45;79.49
65832;BME280;52593;42.648;23.332;2023-04-19T08:21:55;94128.47;;;9.33;80.55
65832;BME280;52593;42.648;23.332;2023-04-19T08:24:21;94138.72;;;9.51;80.29
65832;BME280;52593;42.648;23.332;2023-04-19T08:26:47;94126.72;;;9.61;79.67
65832;BME280;52593;42.648;23.332;2023-04-19T08:29:18;94132.91;;;9.62;79.18
65832;BME280;52593;42.648;23.332;2023-04-19T08:31:44;94125.34;;;9.66;79.08
65832;BME280;52593;42.648;23.332;2023-04-19T08:34:10;94133.97;;;9.82;78.65
65832;BME280;52593;42.648;23.332;2023-04-19T08:36:35;94130.84;;;10.00;77.96
65832;BME280;52593;42.648;23.332;2023-04-19T08:39:01;94119.97;;;10.02;77.52
65832;BME280;52593;42.648;23.332;2023-04-19T08:41:29;94117.66;;;9.56;78.56
65832;BME280;52593;42.648;23.332;2023-04-19T08:43:55;94119.16;;;9.43;79.62
65832;BME280;52593;42.648;23.332;2023-04-19T08:46:23;94112.06;;;9.72;78.19
65832;BME280;52593;42.648;23.332;2023-04-19T08:48:49;94125.66;;;9.56;78.14
65832;BME280;52593;42.648;23.332;2023-04-19T08:51:16;94130.56;;;9.74;78.74
65832;BME280;52593;42.648;23.332;2023-04-19T08:53:43;94113.28;;;9.91;77.76
65832;BME280;52593;42.648;23.332;2023-04-19T08:56:08;94108.56;;;9.72;77.22
65832;BME280;52593;42.648;23.332;2023-04-19T08:58:34;94108.13;;;9.68;78.44
65832;BME280;52593;42.648;23.332;2023-04-19T09:01:03;94109.84;;;9.76;78.36
65832;BME280;52593;42.648;23.332;2023-04-19T09:03:28;94116.16;;;9.90;77.32
65832;BME280;52593;42.648;23.332;2023-04-19T09:05:54;94118.59;;;10.06;76.60
65832;BME280;52593;42.648;23.332;2023-04-19T09:08:21;94120.34;;;9.99;76.27
65832;BME280;52593;42.648;23.332;2023-04-19T09:11:00;94107.84;;;9.85;77.55
65832;BME280;52593;42.648;23.332;2023-04-19T09:13:27;94102.78;;;9.90;77.44
65832;BME280;52593;42.648;23.332;2023-04-19T09:15:53;94094.81;;;9.96;76.32
65832;BME280;52593;42.648;23.332;2023-04-19T09:18:23;94099.16;;;10.19;75.78
65832;BME280;52593;42.648;23.332;2023-04-19T09:20:52;94092.72;;;10.35;75.36
65832;BME280;52593;42.648;23.332;2023-04-19T09:23:23;94104.56;;;10.26;73.98
65832;BME280;52593;42.648;23.332;2023-04-19T09:25:56;94093.38;;;10.15;74.72
65832;BME280;52593;42.648;23.332;2023-04-19T09:28:24;94090.19;;;9.84;75.04
65832;BME280;52593;42.648;23.332;2023-04-19T09:30:50;94092.91;;;9.90;75.11
65832;BME280;52593;42.648;23.332;2023-04-19T09:35:57;94092.28;;;10.31;74.77
65832;BME280;52593;42.648;23.332;2023-04-19T09:38:23;94094.63;;;10.41;73.60
65832;BME280;52593;42.648;23.332;2023-04-19T09:40:48;94086.69;;;10.26;73.92
65832;BME280;52593;42.648;23.332;2023-04-19T09:43:22;94084.03;;;10.55;73.38
65832;BME280;52593;42.648;23.332;2023-04-19T09:45:50;94091.88;;;10.56;73.86
65832;BME280;52593;42.648;23.332;2023-04-19T09:48:15;94074.44;;;10.67;73.08
65832;BME280;52593;42.648;23.332;2023-04-19T09:53:21;94071.66;;;10.82;71.06
65832;BME280;52593;42.648;23.332;2023-04-19T09:55:46;94074.09;;;11.12;71.66
65832;BME280;52593;42.648;23.332;2023-04-19T09:58:13;94067.00;;;11.39;69.86
65832;BME280;52593;42.648;23.332;2023-04-19T10:00:39;94071.94;;;11.42;69.21
65832;BME280;52593;42.648;23.332;2023-04-19T10:03:06;94068.53;;;11.68;67.74
65832;BME280;52593;42.648;23.332;2023-04-19T10:05:38;94054.41;;;12.08;66.19
65832;BME280;52593;42.648;23.332;2023-04-19T10:08:09;94063.91;;;12.04;66.07
65832;BME280;52593;42.648;23.332;2023-04-19T10:10:36;94059.38;;;11.98;67.32
65832;BME280;52593;42.648;23.332;2023-04-19T10:13:03;94064.94;;;12.09;66.37
65832;BME280;52593;42.648;23.332;2023-04-19T10:15:31;94046.56;;;12.00;65.74
65832;BME280;52593;42.648;23.332;2023-04-19T10:17:57;94059.91;;;11.86;65.54
65832;BME280;52593;42.648;23.332;2023-04-19T10:20:46;94052.53;;;12.02;64.51
65832;BME280;52593;42.648;23.332;2023-04-19T10:23:10;94047.19;;;12.62;63.35
65832;BME280;52593;42.648;23.332;2023-04-19T10:25:36;94051.13;;;12.32;60.96
65832;BME280;52593;42.648;23.332;2023-04-19T10:28:02;94050.50;;;12.37;61.05
65832;BME280;52593;42.648;23.332;2023-04-19T10:30:28;94033.56;;;12.57;61.75
65832;BME280;52593;42.648;23.332;2023-04-19T10:32:55;94048.22;;;12.61;62.08
65832;BME280;52593;42.648;23.332;2023-04-19T10:35:23;94033.09;;;12.80;61.31
65832;BME280;52593;42.648;23.332;2023-04-19T10:38:12;94039.56;;;12.32;64.02
65832;BME280;52593;42.648;23.332;2023-04-19T10:43:20;94037.09;;;12.30;64.26
65832;BME280;52593;42.648;23.332;2023-04-19T10:45:46;94017.69;;;12.48;62.77
65832;BME280;52593;42.648;23.332;2023-04-19T10:51:00;94033.13;;;12.73;61.12
65832;BME280;52593;42.648;23.332;2023-04-19T10:53:59;94027.28;;;12.96;61.42
65832;BME280;52593;42.648;23.332;2023-04-19T11:02:00;94017.84;;;12.80;61.31
65832;BME280;52593;42.648;23.332;2023-04-19T11:09:44;94020.66;;;13.06;58.63
65832;BME280;52593;42.648;23.332;2023-04-19T11:12:14;94012.94;;;12.57;59.43
65832;BME280;52593;42.648;23.332;2023-04-19T11:14:41;94016.91;;;13.13;59.74
65832;BME280;52593;42.648;23.332;2023-04-19T11:17:33;94019.84;;;12.98;57.85
65832;BME280;52593;42.648;23.332;2023-04-19T11:20:03;94023.69;;;13.23;59.18
65832;BME280;52593;42.648;23.332;2023-04-19T11:22:39;94029.31;;;13.08;57.34
65832;BME280;52593;42.648;23.332;2023-04-19T11:25:10;94011.78;;;13.05;57.09
65832;BME280;52593;42.648;23.332;2023-04-19T11:27:37;94005.25;;;13.33;56.30
65832;BME280;52593;42.648;23.332;2023-04-19T11:30:10;93999.75;;;13.98;55.68
65832;BME280;52593;42.648;23.332;2023-04-19T11:32:36;94007.97;;;14.03;55.97
65832;BME280;52593;42.648;23.332;2023-04-19T11:35:06;94011.19;;;13.87;54.52
65832;BME280;52593;42.648;23.332;2023-04-19T11:37:33;94010.59;;;14.10;56.80
65832;BME280;52593;42.648;23.332;2023-04-19T11:39:59;94002.50;;;14.42;54.98
65832;BME280;52593;42.648;23.332;2023-04-19T11:42:24;94012.78;;;13.95;53.71
65832;BME280;52593;42.648;23.332;2023-04-19T11:44:51;94018.88;;;14.15;52.33
65832;BME280;52593;42.648;23.332;2023-04-19T11:47:17;93998.28;;;14.27;51.92
65832;BME280;52593;42.648;23.332;2023-04-19T11:49:42;93997.72;;;13.55;53.53
65832;BME280;52593;42.648;23.332;2023-04-19T11:52:08;94006.81;;;13.93;52.69
65832;BME280;52593;42.648;23.332;2023-04-19T11:54:33;93997.56;;;14.14;52.09
65832;BME280;52593;42.648;23.332;2023-04-19T11:57:08;93992.47;;;14.31;50.77
65832;BME280;52593;42.648;23.332;2023-04-19T11:59:34;93986.72;;;14.45;51.41
65832;BME280;52593;42.648;23.332;2023-04-19T12:02:07;93985.69;;;14.72;50.28
65832;BME280;52593;42.648;23.332;2023-04-19T12:04:33;93991.97;;;14.66;48.53
65832;BME280;52593;42.648;23.332;2023-04-19T12:07:01;93990.53;;;14.63;48.77
65832;BME280;52593;42.648;23.332;2023-04-19T12:09:26;93990.63;;;13.99;49.22
65832;BME280;52593;42.648;23.332;2023-04-19T12:11:52;93983.25;;;13.88;52.38
65832;BME280;52593;42.648;23.332;2023-04-19T12:14:20;93990.16;;;14.09;51.25
65832;BME280;52593;42.648;23.332;2023-04-19T12:17:10;93968.84;;;14.07;49.88
65832;BME280;52593;42.648;23.332;2023-04-19T12:19:41;93973.59;;;13.48;51.76
65832;BME280;52593;42.648;23.332;2023-04-19T12:22:08;93979.31;;;13.59;52.51
65832;BME280;52593;42.648;23.332;2023-04-19T12:24:34;93976.91;;;14.33;51.50
65832;BME280;52593;42.648;23.332;2023-04-19T12:26:59;93970.34;;;14.47;47.43
65832;BME280;52593;42.648;23.332;2023-04-19T12:29:26;93975.38;;;14.69;47.27
65832;BME280;52593;42.648;23.332;2023-04-19T12:31:51;93970.63;;;15.20;49.37
65832;BME280;52593;42.648;23.332;2023-04-19T12:34:17;93958.22;;;14.82;48.69
65832;BME280;52593;42.648;23.332;2023-04-19T12:36:42;93955.19;;;14.09;49.28
65832;BME280;52593;42.648;23.332;2023-04-19T12:39:07;93980.84;;;14.55;49.28
65832;BME280;52593;42.648;23.332;2023-04-19T12:41:33;93958.31;;;14.50;48.03
65832;BME280;52593;42.648;23.332;2023-04-19T12:43:58;93947.94;;;15.27;47.00
65832;BME280;52593;42.648;23.332;2023-04-19T12:46:24;93964.78;;;15.72;45.65
65832;BME280;52593;42.648;23.332;2023-04-19T12:48:49;93965.75;;;15.59;47.19
65832;BME280;52593;42.648;23.332;2023-04-19T12:51:15;93957.34;;;15.85;46.89
65832;BME280;52593;42.648;23.332;2023-04-19T12:53:40;93961.25;;;16.13;46.06
65832;BME280;52593;42.648;23.332;2023-04-19T12:56:06;93958.81;;;15.02;48.34
65832;BME280;52593;42.648;23.332;2023-04-19T12:58:31;93975.59;;;14.86;49.86
65832;BME280;52593;42.648;23.332;2023-04-19T13:00:57;93961.44;;;15.58;48.20
65832;BME280;52593;42.648;23.332;2023-04-19T13:03:22;93971.84;;;15.24;48.78
65832;BME280;52593;42.648;23.332;2023-04-19T13:05:47;93955.66;;;15.54;48.21
65832;BME280;52593;42.648;23.332;2023-04-19T13:08:13;93950.44;;;15.59;47.91
65832;BME280;52593;42.648;23.332;2023-04-19T13:10:38;93978.25;;;16.14;48.06
65832;BME280;52593;42.648;23.332;2023-04-19T13:13:04;93988.81;;;13.93;56.75
65832;BME280;52593;42.648;23.332;2023-04-19T13:15:29;93992.00;;;13.77;59.21